Have a Safe July 4th! 

Flight Track Log - Related Links

Times and Time Zones

All times are in EDT time to prevent confusion due to time zone crossing. See the CPT7773 flight status page for this flight to view local times or setup timezone preferences in your user account.

Time Position Orientation Groundspeed Altitude Reporting Facility
EDT Latitude Longitude Course Direction KTS MPH feet Rate Location/Type
Wed 08:00:00 PM 44.3770 -108.7043 120° Southeast  Level FlightAware Approximate
Wed 08:01:00 PM 44.3549 -108.6510 120° Southeast  Level FlightAware Approximate
Wed 08:02:00 PM 44.3327 -108.5977 120° Southeast  Level FlightAware Approximate
Wed 08:03:00 PM 44.3105 -108.5445 120° Southeast  Level FlightAware Approximate
Wed 08:04:00 PM 44.2882 -108.4913 120° Southeast  Level FlightAware Approximate
Wed 08:05:00 PM 44.2660 -108.4381 120° Southeast  Level FlightAware Approximate
Wed 08:06:00 PM 44.2415 -108.3873 133° Southeast  Level FlightAware Approximate
Wed 08:07:00 PM 44.2116 -108.3422 133° Southeast  Level FlightAware Approximate
Wed 08:08:00 PM 44.1815 -108.2971 133° Southeast  Level FlightAware Approximate
Wed 08:09:00 PM 44.1515 -108.2521 133° Southeast  Level FlightAware Approximate
Wed 08:10:00 PM 44.1215 -108.2072 133° Southeast  Level FlightAware Approximate
Wed 08:11:00 PM 44.0915 -108.1621 133° Southeast  Level FlightAware Approximate
Wed 08:12:00 PM 44.0616 -108.1171 133° Southeast  Level FlightAware Approximate
Wed 08:13:00 PM 44.0316 -108.0721 133° Southeast  Level FlightAware Approximate
Wed 08:14:00 PM 44.0016 -108.0272 133° Southeast  Level FlightAware Approximate
Wed 08:15:00 PM 43.9716 -107.9823 133° Southeast  Level FlightAware Approximate
Wed 08:16:00 PM 43.9438 -107.9352 120° Southeast  Level FlightAware Approximate
Wed 08:17:00 PM 43.9218 -107.8821 120° Southeast  Level FlightAware Approximate
Wed 08:18:00 PM 43.8997 -107.8292 120° Southeast  Level FlightAware Approximate
Wed 08:19:00 PM 43.8776 -107.7762 120° Southeast  Level FlightAware Approximate
Wed 08:20:00 PM 43.8530 -107.7257 128° Southeast  Level FlightAware Approximate
Wed 08:21:00 PM 43.8259 -107.6775 128° Southeast  Level FlightAware Approximate
Wed 08:22:00 PM 43.7988 -107.6293 128° Southeast  Level FlightAware Approximate
Wed 08:22:13 PM 43.9014 -107.8272 128° Southeast 164 189 12,000  Level Denver Center
Wed 08:23:00 PM 43.7716 -107.5812 128° Southeast  Level FlightAware Approximate
Wed 08:24:00 PM 43.8471 -107.7509 135° Southeast  Level Estimated
Wed 08:24:00 PM 43.7444 -107.5331 128° Southeast  Level FlightAware Approximate
Wed 08:25:00 PM 43.7177 -107.4859 128° Southeast  Level FlightAware Approximate
Wed 08:26:00 PM 43.6910 -107.4388 128° Southeast  Level FlightAware Approximate
Wed 08:27:00 PM 43.6642 -107.3916 128° Southeast  Level FlightAware Approximate
Wed 08:31:00 PM 43.6333 -107.4528 135° Southeast  Level Estimated
Wed 08:32:00 PM 43.6027 -107.4104 135° Southeast  Level Estimated
Wed 08:33:00 PM 43.5721 -107.3680 135° Southeast  Level Estimated
Wed 08:33:07 PM 43.5544 -107.1611 135° Southeast 158 182 12,000  Level Salt Lake Center
Wed 08:34:00 PM 43.5415 -107.3257 135° Southeast  Level Estimated
Wed 08:34:09 PM 43.5300 -107.1136 125° Southeast 158 182 12,000  Level Salt Lake Center
Wed 08:35:00 PM 43.5108 -107.2834 135° Southeast  Level Estimated
Wed 08:35:11 PM 43.5006 -107.0578 126° Southeast 160 184 12,000  Level Salt Lake Center
Wed 08:36:00 PM 43.4802 -107.2412 135° Southeast  Level Estimated
Wed 08:36:13 PM 43.4756 -107.0094 125° Southeast 161 185 12,000  Level Salt Lake Center
Wed 08:37:00 PM 43.4495 -107.1990 135° Southeast  Level Estimated
Wed 08:37:15 PM 43.4469 -106.9544 126° Southeast 160 184 12,000  Level Salt Lake Center
Wed 08:38:00 PM 43.4188 -107.1568 135° Southeast  Level Estimated
Wed 08:38:17 PM 43.4244 -106.9081 124° Southeast 156 180 12,000  Level Salt Lake Center
Wed 08:39:19 PM 43.3967 -106.8553 126° Southeast 153 176 12,000  Level Salt Lake Center
Wed 08:40:21 PM 43.3725 -106.8106 127° Southeast 153 176 12,000 -293 Level Salt Lake Center
Wed 08:41:22 PM 43.3425 -106.7614 130° Southeast 151 174 11,400 -585 Descending Salt Lake Center
Wed 08:42:24 PM 43.3044 -106.7397 157° South 147 169 10,800 -581 Descending Salt Lake Center
Wed 08:43:26 PM 43.2656 -106.7144 155° Southeast 152 175 10,200 -484 Descending Salt Lake Center
Wed 08:44:28 PM 43.2239 -106.6836 152° Southeast 154 177 9,800 -581 Descending Salt Lake Center
Wed 08:45:30 PM 43.1869 -106.6575 153° Southeast 155 178 9,000 -387 Descending Salt Lake Center
Wed 08:46:32 PM 43.1431 -106.6253 152° Southeast 158 182 9,000 -242 Level Salt Lake Center
Wed 08:47:34 PM 43.1039 -106.5989 154° Southeast 160 184 8,500 -634 Descending Salt Lake Center
Wed 08:48:35 PM 43.0561 -106.5686 155° Southeast 165 190 7,700 -634 Descending Salt Lake Center
Wed 08:49:37 PM 43.0161 -106.5408 153° Southeast 167 192 7,200 -484 Descending Salt Lake Center

Login

Don't have an account? Register now (free) for customized features, flight alerts, and more!